createdAt,value
2023-07-05T00:01:17.818Z,7.25
2023-07-05T00:03:45.887Z,7.00
2023-07-05T00:06:14.538Z,6.00
2023-07-05T00:08:42.752Z,6.00
2023-07-05T00:11:11.877Z,7.75
2023-07-05T00:13:39.936Z,5.75
2023-07-05T00:16:10.644Z,7.25
2023-07-05T00:18:38.880Z,6.00
2023-07-05T00:21:07.971Z,6.25
2023-07-05T00:23:37.388Z,6.50
2023-07-05T00:26:05.429Z,6.75
2023-07-05T00:28:34.323Z,8.25
2023-07-05T00:31:02.325Z,6.00
2023-07-05T00:33:32.405Z,6.00
2023-07-05T00:36:00.414Z,6.75
2023-07-05T00:38:28.655Z,5.75
2023-07-05T00:40:56.614Z,6.50
2023-07-05T00:43:24.839Z,6.00
2023-07-05T00:45:57.986Z,7.00
2023-07-05T00:48:29.981Z,5.00
2023-07-05T00:50:59.983Z,7.00
2023-07-05T00:53:28.012Z,7.25
2023-07-05T00:55:58.087Z,7.00
2023-07-05T00:58:26.430Z,7.00
2023-07-05T01:00:54.390Z,6.25
2023-07-05T01:03:22.951Z,6.00
2023-07-05T01:05:55.492Z,6.00
2023-07-05T01:08:25.623Z,6.00
2023-07-05T01:10:57.993Z,7.00
2023-07-05T01:13:29.156Z,6.00
2023-07-05T01:15:59.737Z,5.75
2023-07-05T01:18:31.083Z,5.50
2023-07-05T01:21:01.965Z,6.50
2023-07-05T01:23:56.777Z,5.00
2023-07-05T01:26:55.326Z,6.00
2023-07-05T01:29:48.296Z,5.75
2023-07-05T01:32:18.275Z,5.25
2023-07-05T01:34:48.833Z,6.00
2023-07-05T01:37:31.684Z,6.00
2023-07-05T01:39:59.715Z,5.50
2023-07-05T01:42:31.193Z,6.00
2023-07-05T01:44:59.086Z,5.50
2023-07-05T01:47:31.605Z,6.25
2023-07-05T01:50:04.303Z,5.00
2023-07-05T01:52:35.790Z,5.00
2023-07-05T01:55:08.013Z,5.00
2023-07-05T01:57:37.989Z,5.75
2023-07-05T02:00:09.234Z,5.00
2023-07-05T02:02:39.969Z,5.00
2023-07-05T02:05:09.251Z,5.00
2023-07-05T02:07:37.620Z,5.50
2023-07-05T02:10:06.031Z,5.00
2023-07-05T02:12:34.044Z,5.00
2023-07-05T02:15:02.018Z,5.25
2023-07-05T02:17:30.598Z,4.25
2023-07-05T02:20:00.056Z,4.00
2023-07-05T02:22:28.068Z,5.00
2023-07-05T02:24:56.741Z,5.75
2023-07-05T02:27:25.011Z,4.00
2023-07-05T02:29:53.215Z,5.00
2023-07-05T02:32:22.035Z,4.75
2023-07-05T02:34:50.110Z,5.00
2023-07-05T02:37:19.789Z,4.00
2023-07-05T02:39:47.968Z,4.75
2023-07-05T02:42:16.032Z,3.50
2023-07-05T02:44:44.075Z,3.75
2023-07-05T02:47:12.415Z,5.00
2023-07-05T02:49:40.357Z,3.25
2023-07-05T02:52:08.641Z,3.25
2023-07-05T02:54:37.977Z,5.25
2023-07-05T02:57:06.758Z,4.00
2023-07-05T02:59:34.777Z,3.00
2023-07-05T03:02:02.839Z,3.00
2023-07-05T03:04:30.969Z,3.50
2023-07-05T03:06:59.041Z,4.00
2023-07-05T03:09:27.333Z,3.75
2023-07-05T03:11:56.688Z,4.00
2023-07-05T03:14:24.867Z,4.00
2023-07-05T03:16:52.967Z,4.00
2023-07-05T03:19:21.244Z,4.00
2023-07-05T03:21:49.602Z,3.00
2023-07-05T03:24:17.602Z,5.00
2023-07-05T03:26:45.588Z,4.50
2023-07-05T03:29:15.312Z,4.00
2023-07-05T03:31:43.375Z,3.25
2023-07-05T03:34:11.494Z,3.25
2023-07-05T03:36:39.531Z,5.00
2023-07-05T03:39:07.570Z,3.25
2023-07-05T03:41:35.550Z,3.75
2023-07-05T03:44:03.564Z,4.00
2023-07-05T03:46:33.025Z,3.00
2023-07-05T03:49:01.331Z,3.00
2023-07-05T03:51:29.320Z,3.25
2023-07-05T03:53:57.883Z,3.00
2023-07-05T03:56:25.874Z,3.00
2023-07-05T03:58:54.134Z,3.00
2023-07-05T04:01:23.672Z,4.00
2023-07-05T04:03:55.051Z,3.50
2023-07-05T04:06:23.424Z,5.00
2023-07-05T04:08:51.670Z,6.00
2023-07-05T04:11:19.759Z,6.00
2023-07-05T04:13:47.922Z,4.75
2023-07-05T04:16:16.921Z,4.75
2023-07-05T04:18:45.808Z,6.00
2023-07-05T04:21:15.231Z,6.00
2023-07-05T04:23:43.285Z,4.00
2023-07-05T04:26:12.322Z,5.00
2023-07-05T04:28:41.373Z,6.00
2023-07-05T04:31:13.522Z,3.50
2023-07-05T04:33:41.496Z,4.50
2023-07-05T04:36:23.666Z,3.50
2023-07-05T04:38:55.897Z,4.25
2023-07-05T04:41:23.838Z,5.00
2023-07-05T04:43:52.875Z,4.00
2023-07-05T04:46:21.253Z,3.75
2023-07-05T04:48:49.591Z,3.00
2023-07-05T04:51:17.599Z,4.00
2023-07-05T04:53:45.653Z,3.00
2023-07-05T04:56:15.519Z,5.00
2023-07-05T04:58:43.816Z,3.00
2023-07-05T05:01:14.532Z,3.00
2023-07-05T05:03:43.005Z,2.00
2023-07-05T05:06:10.982Z,3.00
2023-07-05T05:08:39.270Z,3.00
2023-07-05T05:11:07.353Z,4.25
2023-07-05T05:13:37.333Z,2.25
2023-07-05T05:16:05.706Z,3.00
2023-07-05T05:18:35.313Z,3.00
2023-07-05T05:21:03.395Z,3.00
2023-07-05T05:23:31.630Z,3.00
2023-07-05T05:25:59.599Z,4.00
2023-07-05T05:28:27.951Z,3.00
2023-07-05T05:31:04.496Z,3.00
2023-07-05T05:33:32.483Z,2.00
2023-07-05T05:36:00.421Z,3.00
2023-07-05T05:38:28.670Z,3.25
2023-07-05T05:41:02.294Z,2.75
2023-07-05T05:43:30.303Z,2.00
2023-07-05T05:45:58.377Z,3.00
2023-07-05T05:48:28.350Z,3.00
2023-07-05T05:50:56.440Z,3.00
2023-07-05T05:53:24.593Z,3.00
2023-07-05T05:55:52.529Z,3.00
2023-07-05T05:58:20.773Z,3.25
2023-07-05T06:00:48.882Z,2.25
2023-07-05T06:03:16.921Z,2.50
2023-07-05T06:05:46.419Z,3.00
2023-07-05T06:08:14.342Z,2.50
2023-07-05T06:10:42.504Z,2.25
2023-07-05T06:13:10.509Z,3.00
2023-07-05T06:15:38.522Z,2.50
2023-07-05T06:18:06.881Z,2.50
2023-07-05T06:20:34.973Z,2.50
2023-07-05T06:23:04.648Z,3.00
2023-07-05T06:25:35.328Z,3.00
2023-07-05T06:28:03.335Z,1.00
2023-07-05T06:30:31.388Z,2.50
2023-07-05T06:32:59.420Z,2.75
2023-07-05T06:35:27.330Z,2.00
2023-07-05T06:37:55.555Z,3.00
2023-07-05T06:40:24.962Z,2.75
2023-07-05T06:42:52.861Z,3.00
2023-07-05T06:45:20.802Z,4.25
2023-07-05T06:47:51.317Z,3.00
2023-07-05T06:50:19.679Z,2.00
2023-07-05T06:52:47.637Z,3.00
2023-07-05T06:55:15.844Z,3.00
2023-07-05T06:57:45.196Z,3.00
2023-07-05T07:00:14.785Z,3.00
2023-07-05T07:02:42.887Z,2.25
2023-07-05T07:05:12.891Z,2.50
2023-07-05T07:07:41.241Z,2.00
2023-07-05T07:10:09.913Z,2.00
2023-07-05T07:12:37.879Z,2.75
2023-07-05T07:15:09.428Z,2.00
2023-07-05T07:17:37.767Z,2.00
2023-07-05T07:20:06.991Z,2.00
2023-07-05T07:22:35.041Z,2.00
2023-07-05T07:25:04.238Z,2.25
2023-07-05T07:27:32.401Z,2.75
2023-07-05T07:30:00.391Z,2.25
2023-07-05T07:32:29.739Z,1.75
2023-07-05T07:34:57.769Z,2.00
2023-07-05T07:37:26.021Z,2.00
2023-07-05T07:39:54.007Z,2.00
2023-07-05T07:42:22.480Z,3.00
2023-07-05T07:44:50.428Z,1.50
2023-07-05T07:47:18.713Z,2.00
2023-07-05T07:49:48.030Z,2.00
2023-07-05T07:52:16.979Z,2.00
2023-07-05T07:54:44.960Z,2.50
2023-07-05T07:57:13.200Z,2.50
2023-07-05T07:59:43.130Z,3.00
2023-07-05T08:02:14.695Z,3.00
2023-07-05T08:04:45.043Z,1.75
2023-07-05T08:07:15.547Z,1.75
2023-07-05T08:09:43.553Z,2.00
2023-07-05T08:12:11.982Z,2.00
2023-07-05T08:14:40.006Z,2.00
2023-07-05T08:17:08.246Z,1.75
2023-07-05T08:19:36.201Z,2.00
2023-07-05T08:22:04.926Z,3.00
2023-07-05T08:24:34.582Z,2.00
2023-07-05T08:27:02.561Z,3.00
2023-07-05T08:29:30.897Z,0.75
2023-07-05T08:31:58.928Z,2.00
2023-07-05T08:34:26.966Z,3.00
2023-07-05T08:36:54.938Z,2.75
2023-07-05T08:39:23.208Z,2.00
2023-07-05T08:42:17.942Z,2.00
2023-07-05T08:44:55.605Z,1.00
2023-07-05T08:47:26.610Z,1.75
2023-07-05T08:50:08.439Z,2.00
2023-07-05T08:52:43.016Z,2.25
2023-07-05T08:55:14.777Z,1.25
2023-07-05T08:57:48.869Z,2.00
2023-07-05T09:00:18.251Z,1.00
2023-07-05T09:02:46.293Z,1.50
2023-07-05T09:05:17.827Z,2.00
2023-07-05T09:07:52.486Z,2.00
2023-07-05T09:10:22.796Z,2.00
2023-07-05T09:12:54.611Z,2.00
2023-07-05T09:15:24.533Z,1.25
2023-07-05T09:17:54.800Z,1.25
2023-07-05T09:20:41.762Z,2.00
2023-07-05T09:23:13.666Z,2.00
2023-07-05T09:25:54.602Z,1.25
2023-07-05T09:28:29.457Z,2.50
2023-07-05T09:30:58.421Z,2.00
2023-07-05T09:33:30.149Z,1.00
2023-07-05T09:35:58.146Z,1.25
2023-07-05T09:38:30.342Z,2.00
2023-07-05T09:41:02.261Z,2.00
2023-07-05T09:43:32.913Z,1.00
2023-07-05T09:46:01.297Z,3.00
2023-07-05T09:48:29.603Z,1.50
2023-07-05T09:51:04.643Z,2.00
2023-07-05T09:53:38.242Z,2.00
2023-07-05T09:56:07.173Z,2.00
2023-07-05T09:58:36.950Z,2.00
2023-07-05T10:01:05.993Z,2.00
2023-07-05T10:03:37.786Z,2.00
2023-07-05T10:06:09.766Z,1.00
2023-07-05T10:08:45.745Z,2.00
2023-07-05T10:11:24.321Z,1.75
2023-07-05T10:14:15.117Z,1.00
2023-07-05T10:16:52.149Z,3.00
2023-07-05T10:19:33.243Z,1.25
2023-07-05T10:22:07.493Z,2.00
2023-07-05T10:24:44.627Z,1.75
2023-07-05T10:27:22.856Z,2.00
2023-07-05T10:29:52.968Z,1.00
2023-07-05T10:32:21.164Z,1.00
2023-07-05T10:34:51.025Z,2.75
2023-07-05T10:37:29.191Z,2.00
2023-07-05T10:39:57.416Z,2.00
2023-07-05T10:42:26.134Z,2.00
2023-07-05T10:44:55.489Z,2.00
2023-07-05T10:47:23.759Z,2.25
2023-07-05T10:49:52.973Z,2.00
2023-07-05T10:52:21.044Z,1.00
2023-07-05T10:54:51.566Z,2.00
2023-07-05T10:57:22.390Z,2.00
2023-07-05T10:59:53.277Z,3.00
2023-07-05T11:02:29.888Z,1.50
2023-07-05T11:04:57.920Z,2.00
2023-07-05T11:07:26.217Z,2.00
2023-07-05T11:09:54.238Z,2.00
2023-07-05T11:12:24.232Z,2.00
2023-07-05T11:14:52.320Z,1.00
2023-07-05T11:17:28.282Z,2.00
2023-07-05T11:19:56.230Z,1.00
2023-07-05T11:22:44.313Z,2.25
2023-07-05T11:25:13.834Z,1.00
2023-07-05T11:27:52.716Z,2.00
2023-07-05T11:30:48.036Z,1.50
2023-07-05T11:33:21.847Z,2.00
2023-07-05T11:35:51.928Z,2.00
2023-07-05T11:39:02.477Z,2.75
2023-07-05T11:41:32.085Z,2.00
2023-07-05T11:44:02.403Z,2.00
2023-07-05T11:46:41.081Z,2.00
2023-07-05T11:49:38.992Z,2.00
2023-07-05T11:52:12.518Z,1.75
2023-07-05T11:54:57.513Z,2.00
2023-07-05T11:57:25.467Z,2.25
2023-07-05T12:00:00.372Z,2.00
2023-07-05T12:02:40.733Z,2.00
2023-07-05T12:05:12.987Z,1.25
2023-07-05T12:07:40.942Z,1.75
2023-07-05T12:10:09.807Z,1.75
2023-07-05T12:12:41.167Z,2.00
2023-07-05T12:15:12.663Z,2.00
2023-07-05T12:17:40.937Z,2.00
2023-07-05T12:20:22.977Z,3.00
2023-07-05T12:22:50.928Z,2.00
2023-07-05T12:25:19.088Z,2.00
2023-07-05T12:27:47.070Z,2.00
2023-07-05T12:30:19.528Z,2.00
2023-07-05T12:32:50.264Z,2.00
2023-07-05T12:35:21.952Z,1.50
2023-07-05T12:37:50.811Z,2.00
2023-07-05T12:40:24.753Z,2.75
2023-07-05T12:42:53.960Z,2.00
2023-07-05T12:45:25.346Z,2.00
2023-07-05T12:47:53.846Z,2.00
2023-07-05T12:50:24.661Z,2.00
2023-07-05T12:53:06.810Z,1.75
2023-07-05T12:55:37.022Z,3.00
2023-07-05T12:58:05.834Z,2.00
2023-07-05T13:00:33.973Z,1.75
2023-07-05T13:03:05.242Z,3.00
2023-07-05T13:05:34.733Z,1.50
2023-07-05T13:08:03.059Z,2.00
2023-07-05T13:10:31.300Z,2.00
2023-07-05T13:13:00.237Z,2.00
2023-07-05T13:15:35.138Z,3.00
2023-07-05T13:18:16.870Z,2.00
2023-07-05T13:20:46.202Z,2.00
2023-07-05T13:23:14.170Z,2.00
2023-07-05T13:25:46.206Z,2.00
2023-07-05T13:28:21.232Z,1.50
2023-07-05T13:30:55.604Z,2.00
2023-07-05T13:33:24.027Z,1.25
2023-07-05T13:35:53.387Z,2.00
2023-07-05T13:38:26.326Z,3.00
2023-07-05T13:40:55.537Z,1.00
2023-07-05T13:43:23.684Z,2.00
2023-07-05T13:45:51.685Z,2.00
2023-07-05T13:48:21.357Z,2.00
2023-07-05T13:50:49.533Z,2.00
2023-07-05T13:53:21.213Z,2.00
2023-07-05T13:55:49.413Z,1.00
2023-07-05T13:58:18.662Z,2.00
2023-07-05T14:00:47.245Z,2.00
2023-07-05T14:03:16.157Z,2.00
2023-07-05T14:05:44.305Z,1.75
2023-07-05T14:08:15.995Z,1.50
2023-07-05T14:10:47.275Z,2.00
2023-07-05T14:13:16.586Z,2.00
2023-07-05T14:15:45.395Z,2.00
2023-07-05T14:18:15.886Z,2.00
2023-07-05T14:20:44.656Z,4.00
2023-07-05T14:23:14.003Z,3.00
2023-07-05T14:25:45.561Z,2.75
2023-07-05T14:28:14.044Z,3.00
2023-07-05T14:30:42.221Z,2.75
2023-07-05T14:33:11.276Z,3.00
2023-07-05T14:35:39.452Z,3.00
2023-07-05T14:38:09.429Z,2.00
2023-07-05T14:40:37.413Z,4.25
2023-07-05T14:43:07.011Z,3.00
2023-07-05T14:45:35.760Z,2.00
2023-07-05T14:48:04.498Z,2.75
2023-07-05T14:50:33.625Z,3.00
2023-07-05T14:53:03.252Z,2.75
2023-07-05T14:55:32.122Z,2.25
2023-07-05T14:58:00.584Z,3.00
2023-07-05T15:00:32.878Z,4.00
2023-07-05T15:03:03.426Z,3.25
2023-07-05T15:05:31.415Z,4.00
2023-07-05T15:07:59.402Z,2.75
2023-07-05T15:10:27.369Z,3.00
2023-07-05T15:12:55.312Z,3.00
2023-07-05T15:15:24.938Z,3.00
2023-07-05T15:17:55.581Z,2.00
2023-07-05T15:20:23.662Z,3.50
2023-07-05T15:22:51.823Z,3.00
2023-07-05T15:25:20.717Z,4.00
2023-07-05T15:27:49.570Z,3.00
2023-07-05T15:30:17.869Z,3.00
2023-07-05T15:32:45.882Z,4.00
2023-07-05T15:35:15.950Z,2.00
2023-07-05T15:37:43.958Z,3.25
2023-07-05T15:40:12.572Z,3.00
2023-07-05T15:42:40.726Z,3.00
2023-07-05T15:45:11.814Z,2.00
2023-07-05T15:47:40.105Z,2.75
2023-07-05T15:50:09.633Z,3.50
2023-07-05T15:52:39.072Z,2.50
2023-07-05T15:55:08.079Z,3.00
2023-07-05T15:57:36.081Z,3.00
2023-07-05T16:00:05.894Z,3.75
2023-07-05T16:02:41.796Z,4.00
2023-07-05T16:05:10.570Z,3.50
2023-07-05T16:07:39.965Z,3.00
2023-07-05T16:10:09.120Z,3.75
2023-07-05T16:12:37.063Z,3.00
2023-07-05T16:15:05.691Z,2.50
2023-07-05T16:17:33.603Z,3.00
2023-07-05T16:20:01.652Z,4.25
2023-07-05T16:22:29.693Z,3.00
2023-07-05T16:24:59.369Z,4.00
2023-07-05T16:27:27.339Z,2.75
2023-07-05T16:29:55.343Z,2.50
2023-07-05T16:32:24.192Z,2.75
2023-07-05T16:34:52.281Z,3.00
2023-07-05T16:37:20.268Z,3.00
2023-07-05T16:39:48.479Z,4.00
2023-07-05T16:42:17.906Z,4.00
2023-07-05T16:44:45.921Z,3.75
2023-07-05T16:47:13.911Z,3.50
2023-07-05T16:49:42.058Z,4.25
2023-07-05T16:52:10.189Z,3.50
2023-07-05T16:54:38.140Z,3.50
2023-07-05T16:57:07.092Z,4.00
2023-07-05T16:59:36.857Z,4.00
2023-07-05T17:02:05.896Z,5.00
2023-07-05T17:04:34.985Z,4.75
2023-07-05T17:07:03.978Z,4.00
2023-07-05T17:09:32.066Z,7.00
2023-07-05T17:12:00.086Z,5.00
2023-07-05T17:14:28.313Z,4.75
2023-07-05T17:16:57.748Z,5.00
2023-07-05T17:19:25.789Z,5.00
2023-07-05T17:21:53.740Z,4.00
2023-07-05T17:24:23.692Z,4.00
2023-07-05T17:26:51.655Z,4.50
2023-07-05T17:29:20.165Z,4.00
2023-07-05T17:31:48.159Z,5.75
2023-07-05T17:34:19.690Z,5.00
2023-07-05T17:36:47.615Z,4.00
2023-07-05T17:39:15.527Z,4.00
2023-07-05T17:41:43.771Z,3.00
2023-07-05T17:44:12.026Z,4.50
2023-07-05T17:46:42.747Z,4.00
2023-07-05T17:49:11.601Z,4.00
2023-07-05T17:51:41.694Z,5.00
2023-07-05T17:54:11.438Z,4.75
2023-07-05T17:56:40.122Z,4.00
2023-07-05T17:59:08.355Z,4.00
2023-07-05T18:01:36.801Z,3.50
2023-07-05T18:04:04.830Z,4.00
2023-07-05T18:06:33.662Z,4.00
2023-07-05T18:09:03.588Z,4.00
2023-07-05T18:11:31.610Z,3.25
2023-07-05T18:13:59.693Z,4.00
2023-07-05T18:16:27.914Z,4.00
2023-07-05T18:18:55.925Z,3.50
2023-07-05T18:21:26.708Z,4.00
2023-07-05T18:23:55.186Z,3.00
2023-07-05T18:26:24.723Z,4.00
2023-07-05T18:28:53.997Z,2.75
2023-07-05T18:31:22.460Z,3.00
2023-07-05T18:33:51.597Z,2.00
2023-07-05T18:36:21.932Z,3.00
2023-07-05T18:38:51.849Z,3.00
2023-07-05T18:41:21.204Z,3.00
2023-07-05T18:43:50.848Z,3.00
2023-07-05T18:46:18.883Z,2.00
2023-07-05T18:48:47.745Z,3.25
2023-07-05T18:51:15.996Z,3.00
2023-07-05T18:53:44.494Z,3.00
2023-07-05T18:56:13.225Z,3.00
2023-07-05T18:58:41.528Z,3.00
2023-07-05T19:01:14.064Z,3.00
2023-07-05T19:03:43.502Z,2.25
2023-07-05T19:06:15.260Z,3.00
2023-07-05T19:08:43.344Z,3.00
2023-07-05T19:11:12.357Z,3.00
2023-07-05T19:13:40.782Z,2.00
2023-07-05T19:16:10.533Z,3.00
2023-07-05T19:18:38.804Z,3.00
2023-07-05T19:21:06.980Z,3.00
2023-07-05T19:23:35.857Z,3.25
2023-07-05T19:26:04.929Z,4.00
2023-07-05T19:28:34.094Z,4.00
2023-07-05T19:31:07.743Z,4.00
2023-07-05T19:33:37.597Z,3.25
2023-07-05T19:36:06.146Z,4.00
2023-07-05T19:38:34.498Z,4.00
2023-07-05T19:41:02.480Z,3.50
2023-07-05T19:43:30.598Z,3.00
2023-07-05T19:46:02.298Z,2.25
2023-07-05T19:48:30.546Z,2.00
2023-07-05T19:51:02.279Z,3.50
2023-07-05T19:53:30.690Z,2.00
2023-07-05T19:55:59.073Z,2.25
2023-07-05T19:58:28.186Z,2.00
2023-07-05T20:00:56.131Z,2.00
2023-07-05T20:03:24.373Z,2.75
2023-07-05T20:05:52.525Z,3.00
2023-07-05T20:08:21.855Z,3.00
2023-07-05T20:10:49.809Z,2.00
2023-07-05T20:13:18.326Z,2.25
2023-07-05T20:15:56.863Z,3.00
2023-07-05T20:18:25.044Z,3.00
2023-07-05T20:20:56.706Z,2.25
2023-07-05T20:23:30.291Z,3.00
2023-07-05T20:25:58.495Z,2.00
2023-07-05T20:28:28.721Z,3.50
2023-07-05T20:30:58.306Z,3.00
2023-07-05T20:33:27.249Z,2.75
2023-07-05T20:35:58.219Z,2.00
2023-07-05T20:38:26.843Z,2.00
2023-07-05T20:40:56.455Z,2.00
2023-07-05T20:43:24.802Z,2.25
2023-07-05T20:45:56.358Z,1.25
2023-07-05T20:48:24.717Z,3.00
2023-07-05T20:51:00.618Z,2.00
2023-07-05T20:53:28.805Z,1.50
2023-07-05T20:55:59.336Z,3.00
2023-07-05T20:58:29.702Z,2.25
2023-07-05T21:00:58.208Z,2.50
2023-07-05T21:03:26.430Z,4.00
2023-07-05T21:05:54.710Z,3.00
2023-07-05T21:08:23.077Z,2.00
2023-07-05T21:10:52.822Z,3.00
2023-07-05T21:13:23.421Z,3.25
2023-07-05T21:15:51.886Z,2.25
2023-07-05T21:18:19.885Z,2.25
2023-07-05T21:20:47.866Z,2.25
2023-07-05T21:23:16.751Z,2.00
2023-07-05T21:25:48.403Z,3.00
2023-07-05T21:28:16.696Z,3.00
2023-07-05T21:30:46.949Z,2.00
2023-07-05T21:33:16.629Z,2.00
2023-07-05T21:35:44.552Z,3.00
2023-07-05T21:38:13.399Z,2.00
2023-07-05T21:40:41.346Z,2.00
2023-07-05T21:43:09.462Z,2.25
2023-07-05T21:45:37.478Z,2.75
2023-07-05T21:48:07.474Z,1.25
2023-07-05T21:50:35.528Z,2.00
2023-07-05T21:53:03.458Z,2.25
2023-07-05T21:55:31.549Z,2.50
2023-07-05T21:57:59.878Z,2.00
2023-07-05T22:00:27.901Z,2.00
2023-07-05T22:02:58.077Z,2.00
2023-07-05T22:05:30.900Z,2.50
2023-07-05T22:07:58.972Z,2.00
2023-07-05T22:10:27.715Z,2.00
2023-07-05T22:12:55.607Z,3.00
2023-07-05T22:15:24.307Z,3.00
2023-07-05T22:17:54.905Z,2.50
2023-07-05T22:20:25.111Z,2.25
2023-07-05T22:22:55.127Z,2.50
2023-07-05T22:25:23.219Z,2.00
2023-07-05T22:27:51.493Z,2.50
2023-07-05T22:30:19.501Z,2.50
2023-07-05T22:32:48.406Z,2.00
2023-07-05T22:35:16.972Z,3.00
2023-07-05T22:37:45.234Z,2.25
2023-07-05T22:40:17.632Z,2.75
2023-07-05T22:42:45.551Z,2.75
2023-07-05T22:45:14.268Z,2.00
2023-07-05T22:47:42.453Z,2.25
2023-07-05T22:50:11.768Z,1.25
2023-07-05T22:52:39.761Z,2.00
2023-07-05T22:55:08.962Z,2.00
2023-07-05T22:57:38.272Z,2.00
2023-07-05T23:00:13.410Z,1.75
2023-07-05T23:02:41.533Z,2.00
2023-07-05T23:05:10.245Z,2.75
2023-07-05T23:07:38.326Z,2.75
2023-07-05T23:10:07.037Z,3.00
2023-07-05T23:12:35.067Z,2.50
2023-07-05T23:15:08.786Z,2.00
2023-07-05T23:17:36.941Z,2.00
2023-07-05T23:20:09.700Z,2.00
2023-07-05T23:22:37.688Z,1.00
2023-07-05T23:25:05.982Z,2.00
2023-07-05T23:27:34.803Z,1.00
2023-07-05T23:30:05.156Z,1.75
2023-07-05T23:32:33.133Z,2.00
2023-07-05T23:35:01.130Z,1.00
2023-07-05T23:37:29.814Z,2.00
2023-07-05T23:39:57.770Z,1.75
2023-07-05T23:42:25.855Z,2.00
2023-07-05T23:44:53.934Z,2.50
2023-07-05T23:47:24.264Z,3.00
2023-07-05T23:49:52.871Z,1.25
2023-07-05T23:52:25.683Z,1.00
2023-07-05T23:54:54.423Z,2.00
2023-07-05T23:57:23.604Z,1.00
2023-07-05T23:59:51.564Z,2.00
